createdAt,value
2018-04-22T00:00:05.866Z,22.20
2018-04-22T00:02:33.320Z,21.60
2018-04-22T00:05:00.750Z,22.10
2018-04-22T00:07:28.430Z,22.20
2018-04-22T00:09:55.907Z,22.20
2018-04-22T00:12:23.363Z,22.80
2018-04-22T00:14:50.850Z,22.00
2018-04-22T00:17:19.151Z,21.90
2018-04-22T00:19:46.672Z,21.90
2018-04-22T00:22:14.087Z,22.00
2018-04-22T00:24:41.543Z,22.50
2018-04-22T00:27:08.996Z,21.80
2018-04-22T00:29:36.474Z,21.90
2018-04-22T00:32:04.002Z,22.10
2018-04-22T00:34:31.433Z,21.80
2018-04-22T00:36:58.862Z,21.70
2018-04-22T00:39:26.311Z,21.80
2018-04-22T00:41:53.855Z,21.60
2018-04-22T00:44:21.325Z,21.80
2018-04-22T00:46:48.754Z,21.80
2018-04-22T00:49:16.196Z,22.10
2018-04-22T00:51:43.617Z,22.20
2018-04-22T00:54:21.842Z,21.70
2018-04-22T00:56:49.364Z,21.80
2018-04-22T00:59:17.622Z,21.70
2018-04-22T01:01:45.176Z,21.70
2018-04-22T01:04:12.625Z,22.00
2018-04-22T01:06:40.078Z,21.70
2018-04-22T01:09:07.540Z,21.90
2018-04-22T01:11:34.957Z,22.40
2018-04-22T01:14:02.396Z,21.60
2018-04-22T01:16:29.808Z,22.20
2018-04-22T01:18:57.373Z,22.30
2018-04-22T01:21:24.837Z,22.40
2018-04-22T01:23:52.594Z,23.00
2018-04-22T01:26:20.018Z,22.30
2018-04-22T01:28:47.496Z,22.40
2018-04-22T01:31:14.919Z,22.30
2018-04-22T01:33:42.363Z,22.30
2018-04-22T01:36:09.891Z,22.20
2018-04-22T01:38:37.517Z,22.90
2018-04-22T01:41:04.995Z,23.30
2018-04-22T01:43:32.425Z,23.00
2018-04-22T01:46:00.207Z,23.10
2018-04-22T01:48:27.670Z,24.10
2018-04-22T01:50:55.097Z,23.50
2018-04-22T01:53:22.573Z,23.20
2018-04-22T01:55:50.010Z,23.80
2018-04-22T01:58:17.595Z,24.20
2018-04-22T02:00:45.026Z,24.10
2018-04-22T02:03:12.505Z,24.60
2018-04-22T02:05:39.930Z,24.50
2018-04-22T02:08:07.358Z,23.90
2018-04-22T02:10:34.881Z,24.20
2018-04-22T02:13:02.305Z,25.20
2018-04-22T02:15:29.738Z,24.90
2018-04-22T02:17:57.165Z,25.10
2018-04-22T02:20:24.652Z,25.40
2018-04-22T02:22:52.091Z,25.40
2018-04-22T02:25:19.538Z,25.70
2018-04-22T02:27:47.062Z,26.60
2018-04-22T02:30:14.501Z,26.50
2018-04-22T02:32:41.929Z,26.70
2018-04-22T02:35:09.431Z,27.10
2018-04-22T02:37:36.861Z,27.80
2018-04-22T02:40:04.342Z,27.90
2018-04-22T02:42:31.804Z,28.20
2018-04-22T02:44:59.425Z,28.30
2018-04-22T02:47:27.011Z,28.10
2018-04-22T02:49:54.474Z,28.00
2018-04-22T02:52:21.900Z,28.80
2018-04-22T02:54:49.385Z,28.60
2018-04-22T02:57:16.815Z,29.00
2018-04-22T02:59:44.297Z,28.70
2018-04-22T03:02:11.759Z,28.70
2018-04-22T03:04:39.518Z,29.40
2018-04-22T03:07:06.988Z,29.60
2018-04-22T03:09:34.633Z,30.00
2018-04-22T03:12:02.035Z,29.60
2018-04-22T03:14:29.663Z,29.80
2018-04-22T03:16:57.281Z,29.70
2018-04-22T03:19:24.786Z,29.60
2018-04-22T03:21:52.320Z,30.20
2018-04-22T03:24:19.773Z,29.60
2018-04-22T03:26:47.197Z,30.00
2018-04-22T03:29:15.402Z,29.90
2018-04-22T03:31:43.071Z,29.90
2018-04-22T03:34:10.502Z,30.60
2018-04-22T03:36:37.975Z,30.50
2018-04-22T03:39:06.325Z,30.50
2018-04-22T03:41:33.810Z,30.80
2018-04-22T03:44:01.277Z,31.00
2018-04-22T03:46:28.709Z,31.50
2018-04-22T03:48:56.181Z,31.80
2018-04-22T03:51:23.621Z,31.40
2018-04-22T03:53:51.214Z,31.70
2018-04-22T03:56:18.737Z,31.90
2018-04-22T03:58:46.229Z,31.30
2018-04-22T04:01:13.697Z,31.50
2018-04-22T04:03:41.143Z,31.90
2018-04-22T04:06:08.625Z,32.00
2018-04-22T04:08:36.068Z,31.40
2018-04-22T04:11:03.604Z,31.10
2018-04-22T04:13:31.366Z,31.90
2018-04-22T04:15:58.794Z,32.10
2018-04-22T04:21:43.812Z,32.70
2018-04-22T04:24:31.783Z,32.50
2018-04-22T04:27:24.791Z,32.10
2018-04-22T04:29:52.253Z,32.40
2018-04-22T04:32:19.714Z,32.50
2018-04-22T04:34:47.150Z,32.00
2018-04-22T04:37:14.623Z,32.10
2018-04-22T04:39:42.081Z,32.10
2018-04-22T04:42:09.706Z,32.10
2018-04-22T04:44:37.161Z,32.00
2018-04-22T04:47:04.702Z,32.10
2018-04-22T04:49:33.648Z,32.00
2018-04-22T04:52:01.120Z,32.00
2018-04-22T04:54:28.566Z,32.00
2018-04-22T04:56:56.114Z,32.90
2018-04-22T04:59:23.538Z,32.80
2018-04-22T05:01:51.002Z,32.20
2018-04-22T05:04:18.538Z,32.00
2018-04-22T05:06:46.125Z,32.10
2018-04-22T05:09:13.624Z,32.50
2018-04-22T05:11:41.084Z,32.90
2018-04-22T05:14:08.598Z,33.40
2018-04-22T05:16:36.075Z,33.60
2018-04-22T05:19:03.510Z,33.40
2018-04-22T05:21:30.934Z,33.00
2018-04-22T05:23:58.377Z,33.10
2018-04-22T05:26:25.811Z,32.80
2018-04-22T05:28:53.273Z,32.00
2018-04-22T05:31:20.791Z,32.00
2018-04-22T05:33:48.211Z,32.00
2018-04-22T05:36:15.642Z,32.10
2018-04-22T05:38:43.171Z,31.40
2018-04-22T05:41:10.609Z,30.60
2018-04-22T05:43:38.042Z,30.70
2018-04-22T05:46:05.542Z,30.00
2018-04-22T05:48:32.962Z,31.50
2018-04-22T05:51:00.400Z,31.20
2018-04-22T05:53:28.842Z,31.10
2018-04-22T05:55:56.474Z,31.10
2018-04-22T05:58:23.990Z,31.70
2018-04-22T06:00:51.424Z,29.70
2018-04-22T06:03:18.973Z,30.50
2018-04-22T06:05:46.744Z,30.40
2018-04-22T06:08:14.181Z,30.30
2018-04-22T06:10:41.650Z,30.00
2018-04-22T06:13:09.409Z,30.10
2018-04-22T06:15:36.861Z,29.20
2018-04-22T06:18:04.285Z,30.50
2018-04-22T06:20:31.720Z,30.20
2018-04-22T06:22:59.159Z,31.40
2018-04-22T06:25:26.633Z,32.10
2018-04-22T06:27:54.059Z,30.00
2018-04-22T06:30:21.512Z,30.30
2018-04-22T06:32:48.938Z,30.40
2018-04-22T06:35:16.438Z,29.10
2018-04-22T06:37:43.864Z,30.40
2018-04-22T06:40:11.387Z,30.30
2018-04-22T06:42:38.787Z,30.90
2018-04-22T06:45:06.340Z,30.40
2018-04-22T06:47:33.774Z,29.40
2018-04-22T06:50:01.260Z,29.80
2018-04-22T06:52:28.698Z,29.30
2018-04-22T06:54:56.401Z,28.30
2018-04-22T06:57:23.818Z,27.50
2018-04-22T06:59:51.255Z,27.40
2018-04-22T07:02:18.797Z,28.40
2018-04-22T07:04:46.214Z,30.00
2018-04-22T07:07:13.659Z,29.40
2018-04-22T07:09:41.212Z,29.90
2018-04-22T07:12:08.687Z,28.60
2018-04-22T07:14:36.435Z,28.70
2018-04-22T07:17:03.878Z,27.80
2018-04-22T07:19:31.304Z,28.60
2018-04-22T07:21:59.507Z,28.30
2018-04-22T07:24:26.927Z,28.80
2018-04-22T07:26:55.135Z,27.00
2018-04-22T07:29:22.678Z,26.90
2018-04-22T07:31:50.118Z,26.40
2018-04-22T07:34:17.555Z,26.10
2018-04-22T07:36:46.006Z,24.10
2018-04-22T07:39:13.431Z,24.10
2018-04-22T07:41:40.878Z,25.70
2018-04-22T07:44:08.400Z,24.60
2018-04-22T07:46:35.806Z,23.40
2018-04-22T07:49:03.221Z,23.10
2018-04-22T07:51:30.734Z,23.20
2018-04-22T07:53:58.361Z,22.90
2018-04-22T07:56:25.868Z,21.40
2018-04-22T07:58:54.266Z,21.30
2018-04-22T08:01:21.750Z,21.30
2018-04-22T08:03:50.103Z,21.90
2018-04-22T08:06:17.522Z,21.90
2018-04-22T08:08:44.945Z,21.50
2018-04-22T08:11:12.522Z,22.10
2018-04-22T08:13:39.951Z,21.20
2018-04-22T08:16:07.384Z,20.80
2018-04-22T08:18:35.836Z,21.80
2018-04-22T08:21:03.261Z,21.70
2018-04-22T08:23:30.734Z,23.30
2018-04-22T08:25:58.360Z,22.50
2018-04-22T08:28:25.842Z,21.90
2018-04-22T08:30:54.018Z,19.70
2018-04-22T08:33:21.508Z,19.70
2018-04-22T08:35:49.244Z,20.20
2018-04-22T08:38:16.662Z,19.80
2018-04-22T08:40:44.105Z,20.50
2018-04-22T08:43:11.618Z,20.20
2018-04-22T08:45:39.090Z,20.20
2018-04-22T08:48:06.525Z,19.60
2018-04-22T08:50:34.014Z,19.10
2018-04-22T08:53:01.441Z,20.00
2018-04-22T08:55:28.873Z,18.50
2018-04-22T08:57:56.330Z,18.50
2018-04-22T09:00:23.781Z,19.00
2018-04-22T09:02:51.533Z,19.50
2018-04-22T09:05:19.085Z,20.20
2018-04-22T09:07:46.522Z,21.20
2018-04-22T09:10:13.964Z,19.70
2018-04-22T09:12:43.184Z,19.80
2018-04-22T09:15:10.911Z,20.30
2018-04-22T09:17:38.386Z,18.30
2018-04-22T09:20:05.843Z,17.60
2018-04-22T09:22:33.273Z,19.10
2018-04-22T09:25:00.716Z,17.60
2018-04-22T09:27:28.176Z,17.10
2018-04-22T09:29:55.639Z,17.10
2018-04-22T09:32:23.862Z,17.90
2018-04-22T09:34:51.282Z,17.80
2018-04-22T09:37:18.729Z,17.10
2018-04-22T09:39:46.177Z,16.80
2018-04-22T09:42:13.629Z,16.30
2018-04-22T09:44:41.074Z,16.50
2018-04-22T09:47:08.493Z,17.30
2018-04-22T09:49:35.922Z,16.30
2018-04-22T09:52:03.377Z,17.00
2018-04-22T09:54:30.806Z,17.20
2018-04-22T09:56:58.256Z,16.40
2018-04-22T09:59:25.762Z,15.50
2018-04-22T10:01:53.890Z,17.00
2018-04-22T10:04:21.304Z,16.90
2018-04-22T10:06:48.815Z,16.30
2018-04-22T10:09:16.441Z,14.80
2018-04-22T10:11:44.026Z,14.20
2018-04-22T10:14:11.455Z,14.00
2018-04-22T10:16:38.957Z,14.90
2018-04-22T10:19:06.397Z,13.60
2018-04-22T10:21:34.038Z,14.20
2018-04-22T10:24:01.457Z,13.50
2018-04-22T10:26:29.657Z,14.10
2018-04-22T10:28:57.072Z,14.10
2018-04-22T10:31:24.513Z,12.40
2018-04-22T10:33:53.020Z,11.80
2018-04-22T10:36:20.447Z,11.80
2018-04-22T10:38:47.888Z,12.00
2018-04-22T10:41:15.339Z,11.60
2018-04-22T10:43:43.013Z,12.50
2018-04-22T10:46:10.566Z,11.20
2018-04-22T10:48:38.015Z,10.80
2018-04-22T10:51:05.437Z,11.20
2018-04-22T10:53:32.861Z,11.20
2018-04-22T10:56:00.298Z,10.00
2018-04-22T10:58:27.745Z,11.60
2018-04-22T11:00:55.237Z,9.60
2018-04-22T11:03:22.643Z,9.70
2018-04-22T11:05:50.207Z,8.70
2018-04-22T11:08:17.667Z,9.10
2018-04-22T11:10:45.087Z,9.50
2018-04-22T11:13:12.522Z,8.30
2018-04-22T11:15:40.043Z,8.10
2018-04-22T11:18:07.515Z,7.60
2018-04-22T11:20:35.122Z,7.30
2018-04-22T11:23:03.326Z,8.20
2018-04-22T11:25:30.741Z,8.10
2018-04-22T11:27:59.119Z,8.20
2018-04-22T11:30:27.674Z,8.10
2018-04-22T11:32:55.103Z,7.30
2018-04-22T11:35:22.533Z,8.20
2018-04-22T11:37:50.164Z,8.30
2018-04-22T11:40:17.593Z,6.80
2018-04-22T11:42:45.022Z,7.50
2018-04-22T11:45:12.965Z,7.40
2018-04-22T11:47:40.394Z,6.70
2018-04-22T11:50:07.811Z,6.90
2018-04-22T11:52:35.337Z,6.10
2018-04-22T11:55:02.776Z,7.00
2018-04-22T11:57:30.228Z,5.60
2018-04-22T11:59:57.700Z,5.60
2018-04-22T12:02:25.953Z,3.70
2018-04-22T12:04:53.310Z,4.00
2018-04-22T12:07:21.558Z,2.70
2018-04-22T12:09:49.030Z,2.70
2018-04-22T12:12:16.453Z,3.60
2018-04-22T12:14:44.273Z,2.70
2018-04-22T12:17:11.629Z,1.80
2018-04-22T12:19:39.111Z,1.00
2018-04-22T12:22:06.529Z,2.40
2018-04-22T12:24:33.950Z,3.90
2018-04-22T12:27:01.495Z,3.60
2018-04-22T12:29:28.958Z,2.70
2018-04-22T12:31:57.044Z,2.90
2018-04-22T12:34:24.717Z,1.00
2018-04-22T12:36:52.148Z,1.00
2018-04-22T12:39:19.590Z,1.30
2018-04-22T12:41:47.065Z,1.00
2018-04-22T12:44:14.601Z,1.00
2018-04-22T12:46:42.177Z,1.00
2018-04-22T12:49:09.760Z,1.00
2018-04-22T12:51:37.318Z,1.00
2018-04-22T12:54:06.440Z,1.00
2018-04-22T12:56:34.645Z,1.00
2018-04-22T12:59:02.083Z,1.00
2018-04-22T13:01:29.497Z,1.00
2018-04-22T13:03:56.947Z,1.00
2018-04-22T13:06:24.368Z,1.00
2018-04-22T13:08:51.926Z,1.00
2018-04-22T13:11:19.361Z,1.00
2018-04-22T13:13:46.838Z,1.00
2018-04-22T13:16:14.295Z,1.00
2018-04-22T13:18:41.753Z,1.00
2018-04-22T13:21:09.197Z,1.00
2018-04-22T13:23:36.659Z,1.00
2018-04-22T13:26:04.122Z,1.00
2018-04-22T13:28:31.542Z,1.00
2018-04-22T13:30:58.972Z,1.00
2018-04-22T13:33:26.401Z,1.00
2018-04-22T13:35:53.982Z,1.00
2018-04-22T13:38:22.207Z,1.00
2018-04-22T13:40:51.415Z,1.00
2018-04-22T13:43:18.846Z,1.00
2018-04-22T13:45:46.269Z,1.00
2018-04-22T13:48:13.701Z,1.00
2018-04-22T13:50:41.877Z,1.00
2018-04-22T13:53:09.305Z,1.00
2018-04-22T13:55:36.713Z,1.00
2018-04-22T13:58:04.180Z,1.00
2018-04-22T14:00:31.590Z,1.00
2018-04-22T14:02:59.812Z,1.00
2018-04-22T14:05:27.349Z,1.00
2018-04-22T14:07:54.988Z,1.00
2018-04-22T14:10:22.393Z,1.00
2018-04-22T14:12:49.821Z,1.00
2018-04-22T14:15:18.737Z,1.00
2018-04-22T14:17:46.934Z,1.00
2018-04-22T14:20:14.307Z,1.00
2018-04-22T14:22:41.738Z,1.00
2018-04-22T14:25:09.910Z,1.00
2018-04-22T14:27:37.275Z,1.00
2018-04-22T14:30:04.722Z,1.00
2018-04-22T14:32:32.147Z,1.00
2018-04-22T14:34:59.599Z,1.00
2018-04-22T14:37:26.995Z,1.00
2018-04-22T14:39:54.413Z,1.00
2018-04-22T14:42:22.629Z,1.00
2018-04-22T14:45:01.917Z,1.00
2018-04-22T14:47:29.471Z,1.00
2018-04-22T14:49:56.987Z,1.00
2018-04-22T14:52:24.435Z,1.00
2018-04-22T14:54:51.859Z,1.00
2018-04-22T14:57:19.342Z,1.00
2018-04-22T14:59:46.866Z,1.00
2018-04-22T15:02:14.454Z,1.00
2018-04-22T15:04:41.885Z,1.00
2018-04-22T15:07:10.073Z,1.00
2018-04-22T15:09:37.498Z,1.00
2018-04-22T15:12:04.917Z,1.00
2018-04-22T15:14:32.471Z,1.00
2018-04-22T15:16:59.922Z,1.00
2018-04-22T15:19:27.396Z,1.00
2018-04-22T15:21:54.797Z,1.00
2018-04-22T15:24:22.234Z,1.00
2018-04-22T15:26:49.647Z,1.00
2018-04-22T15:29:17.112Z,1.00
2018-04-22T15:31:44.563Z,1.00
2018-04-22T15:34:12.001Z,1.00
2018-04-22T15:36:39.410Z,1.00
2018-04-22T15:39:06.862Z,1.00
2018-04-22T15:41:34.453Z,1.00
2018-04-22T15:44:01.942Z,1.00
2018-04-22T15:46:29.357Z,1.00
2018-04-22T15:48:56.791Z,1.00
2018-04-22T15:51:24.219Z,1.00
2018-04-22T15:53:51.661Z,1.00
2018-04-22T15:56:19.073Z,1.00
2018-04-22T15:58:47.274Z,1.00
2018-04-22T16:01:14.686Z,1.00
2018-04-22T16:03:42.142Z,1.00
2018-04-22T16:06:09.570Z,1.00
2018-04-22T16:08:37.042Z,1.00
2018-04-22T16:11:04.453Z,1.00
2018-04-22T16:13:31.842Z,1.00
2018-04-22T16:15:59.265Z,1.00
2018-04-22T16:18:26.690Z,1.00
2018-04-22T16:20:54.113Z,1.00
2018-04-22T16:23:21.533Z,1.00
2018-04-22T16:25:48.965Z,1.00
2018-04-22T16:28:16.391Z,1.00
2018-04-22T16:30:43.803Z,1.00
2018-04-22T16:33:12.019Z,1.00
2018-04-22T16:35:39.437Z,1.00
2018-04-22T16:38:06.858Z,1.00
2018-04-22T16:40:34.303Z,1.00
2018-04-22T16:43:01.729Z,1.00
2018-04-22T16:45:29.145Z,1.00
2018-04-22T16:47:56.579Z,1.00
2018-04-22T16:50:24.779Z,1.00
2018-04-22T16:52:52.193Z,1.00
2018-04-22T16:55:19.698Z,1.00
2018-04-22T16:57:47.157Z,1.00
2018-04-22T17:00:14.561Z,1.00
2018-04-22T17:02:41.969Z,1.00
2018-04-22T17:05:09.423Z,1.00
2018-04-22T17:07:36.826Z,1.00
2018-04-22T17:10:04.341Z,1.00
2018-04-22T17:12:31.763Z,1.00
2018-04-22T17:15:00.011Z,1.00
2018-04-22T17:17:27.401Z,1.00
2018-04-22T17:19:54.874Z,1.00
2018-04-22T17:22:22.285Z,1.00
2018-04-22T17:24:49.713Z,1.00
2018-04-22T17:27:17.121Z,1.00
2018-04-22T17:29:44.536Z,1.00
2018-04-22T17:32:12.162Z,1.00
2018-04-22T17:34:39.581Z,1.00
2018-04-22T17:37:07.101Z,1.00
2018-04-22T17:39:34.512Z,1.00
2018-04-22T17:42:01.939Z,1.00
2018-04-22T17:44:29.357Z,1.00
2018-04-22T17:46:56.791Z,1.00
2018-04-22T17:49:24.300Z,1.00
2018-04-22T17:51:51.810Z,1.00
2018-04-22T17:54:19.270Z,1.00
2018-04-22T17:56:46.682Z,1.00
2018-04-22T17:59:14.105Z,1.00
2018-04-22T18:01:41.667Z,1.00
2018-04-22T18:04:09.062Z,1.00
2018-04-22T18:06:36.549Z,1.00
2018-04-22T18:09:04.001Z,1.00
2018-04-22T18:11:31.421Z,1.00
2018-04-22T18:13:58.857Z,1.00
2018-04-22T18:16:26.269Z,1.00
2018-04-22T18:18:53.708Z,1.00
2018-04-22T18:21:21.127Z,1.00
2018-04-22T18:23:48.739Z,1.00
2018-04-22T18:26:16.186Z,1.00
2018-04-22T18:28:43.620Z,1.00
2018-04-22T18:31:11.242Z,1.00
2018-04-22T18:33:38.842Z,1.00
2018-04-22T18:38:39.833Z,1.00
2018-04-22T18:41:07.231Z,1.00
2018-04-22T18:43:34.687Z,1.00
2018-04-22T18:46:02.102Z,1.00
2018-04-22T18:48:29.516Z,1.00
2018-04-22T18:50:56.929Z,1.00
2018-04-22T18:53:24.380Z,1.00
2018-04-22T18:55:51.897Z,1.00
2018-04-22T18:58:19.637Z,1.00
2018-04-22T19:00:47.030Z,1.00
2018-04-22T19:03:14.477Z,1.00
2018-04-22T19:05:41.873Z,1.00
2018-04-22T19:08:09.289Z,1.00
2018-04-22T19:10:36.775Z,1.00
2018-04-22T19:13:04.194Z,1.00
2018-04-22T19:15:31.618Z,1.00
2018-04-22T19:17:59.429Z,1.00
2018-04-22T19:20:26.932Z,1.10
2018-04-22T19:22:55.253Z,1.00
2018-04-22T19:25:22.821Z,1.00
2018-04-22T19:27:50.252Z,1.00
2018-04-22T19:30:17.665Z,1.00
2018-04-22T19:32:45.090Z,1.00
2018-04-22T19:35:12.658Z,1.00
2018-04-22T19:37:40.270Z,1.00
2018-04-22T19:40:08.659Z,1.00
2018-04-22T19:42:36.162Z,1.00
2018-04-22T19:45:03.578Z,1.00
2018-04-22T19:47:31.155Z,1.00
2018-04-22T19:49:58.603Z,1.00
2018-04-22T19:52:26.066Z,1.00
2018-04-22T19:54:53.506Z,1.00
2018-04-22T19:57:20.934Z,1.00
2018-04-22T19:59:48.346Z,1.00
2018-04-22T20:02:15.892Z,1.00
2018-04-22T20:04:43.354Z,1.00
2018-04-22T20:07:10.773Z,1.00
2018-04-22T20:09:38.981Z,1.00
2018-04-22T20:12:06.497Z,1.00
2018-04-22T20:14:34.703Z,1.00
2018-04-22T20:17:02.142Z,1.00
2018-04-22T20:19:29.578Z,1.00
2018-04-22T20:21:57.069Z,1.00
2018-04-22T20:24:24.533Z,1.00
2018-04-22T20:26:51.990Z,1.00
2018-04-22T20:29:19.407Z,1.00
2018-04-22T20:31:46.909Z,1.00
2018-04-22T20:34:14.382Z,1.00
2018-04-22T20:36:41.820Z,1.00
2018-04-22T20:39:09.249Z,1.00
2018-04-22T20:41:36.667Z,1.00
2018-04-22T20:44:04.082Z,1.00
2018-04-22T20:46:31.502Z,1.00
2018-04-22T20:48:59.690Z,1.00
2018-04-22T20:51:27.170Z,1.00
2018-04-22T20:53:54.651Z,1.00
2018-04-22T20:56:22.046Z,1.00
2018-04-22T20:58:50.467Z,1.00
2018-04-22T21:01:17.881Z,1.00
2018-04-22T21:03:45.374Z,1.00
2018-04-22T21:06:12.786Z,1.00
2018-04-22T21:08:40.199Z,1.00
2018-04-22T21:11:07.738Z,1.00
2018-04-22T21:13:35.158Z,1.00
2018-04-22T21:16:02.594Z,1.00
2018-04-22T21:18:30.006Z,1.00
2018-04-22T21:20:57.481Z,1.00
2018-04-22T21:23:24.902Z,1.00
2018-04-22T21:25:52.483Z,1.00
2018-04-22T21:28:19.972Z,1.00
2018-04-22T21:30:47.335Z,1.00
2018-04-22T21:33:14.744Z,1.00
2018-04-22T21:35:42.174Z,1.20
2018-04-22T21:38:09.758Z,1.20
2018-04-22T21:40:37.194Z,1.40
2018-04-22T21:43:04.624Z,1.60
2018-04-22T21:45:32.054Z,2.00
2018-04-22T21:47:59.474Z,2.00
2018-04-22T21:50:27.037Z,1.90
2018-04-22T21:52:54.447Z,1.90
2018-04-22T21:55:21.874Z,2.20
2018-04-22T21:57:49.310Z,2.30
2018-04-22T22:00:16.785Z,2.40
2018-04-22T22:02:44.318Z,2.50
2018-04-22T22:05:11.742Z,2.70
2018-04-22T22:07:39.154Z,2.90
2018-04-22T22:10:06.689Z,3.00
2018-04-22T22:12:34.105Z,3.00
2018-04-22T22:15:01.534Z,3.30
2018-04-22T22:17:28.961Z,3.30
2018-04-22T22:19:56.378Z,3.50
2018-04-22T22:22:24.589Z,3.80
2018-04-22T22:24:52.012Z,3.70
2018-04-22T22:27:19.501Z,3.90
2018-04-22T22:29:46.925Z,3.90
2018-04-22T22:32:14.337Z,4.10
2018-04-22T22:34:41.764Z,4.00
2018-04-22T22:37:09.221Z,4.20
2018-04-22T22:39:36.649Z,4.30
2018-04-22T22:42:04.225Z,4.50
2018-04-22T22:44:31.654Z,4.50
2018-04-22T22:46:59.073Z,4.50
2018-04-22T22:49:27.381Z,4.60
2018-04-22T22:51:55.761Z,4.50
2018-04-22T22:54:23.965Z,4.50
2018-04-22T22:56:51.378Z,4.50
2018-04-22T22:59:18.868Z,4.70
2018-04-22T23:01:46.281Z,4.60
2018-04-22T23:04:13.705Z,4.40
2018-04-22T23:06:41.262Z,4.50
2018-04-22T23:09:08.670Z,4.60
2018-04-22T23:11:36.170Z,4.70
2018-04-22T23:14:03.621Z,5.00
2018-04-22T23:16:31.043Z,5.10
2018-04-22T23:18:58.540Z,5.00
2018-04-22T23:21:25.997Z,5.20
2018-04-22T23:23:53.441Z,5.10
2018-04-22T23:26:20.870Z,5.20
2018-04-22T23:28:48.370Z,5.20
2018-04-22T23:31:15.789Z,5.50
2018-04-22T23:33:43.197Z,5.50
2018-04-22T23:36:10.632Z,5.80
2018-04-22T23:38:38.186Z,5.70
2018-04-22T23:41:05.645Z,5.90
2018-04-22T23:43:33.094Z,6.10
2018-04-22T23:46:00.545Z,5.90
2018-04-22T23:48:28.006Z,6.40
2018-04-22T23:50:55.461Z,6.40
2018-04-22T23:53:22.873Z,6.50
2018-04-22T23:55:50.381Z,6.60
2018-04-22T23:58:17.821Z,6.80
